Time;durP1;ratioP1;P1;durP2;ratioP2;P2;SDS_P1;SDS_P2;PMS_P1;PMS_P2;Temp;Humidity;BMP_temperature;BMP_pressure;BME280_temperature;BME280_humidity;BME280_pressure;Samples;Min_cycle;Max_cycle;Signal;HPM_P1;HPM_P2
2023/05/15 00:01:26;;;;;;;7.63;5.60;;;;;;;9.37;100.00;98331.03;4905818;29;20288;-63
2023/05/15 00:03:53;;;;;;;6.60;5.20;;;;;;;9.34;100.00;98331.34;4908443;29;20226;-62
2023/05/15 00:06:20;;;;;;;7.70;5.40;;;;;;;9.32;100.00;98332.47;4905311;29;20239;-62
2023/05/15 00:08:47;;;;;;;9.37;4.90;;;;;;;9.23;100.00;98332.41;4908099;29;20235;-62
2023/05/15 00:11:13;;;;;;;6.33;5.30;;;;;;;9.29;100.00;98324.00;4904963;29;20312;-62
2023/05/15 00:13:41;;;;;;;6.87;5.80;;;;;;;9.27;100.00;98327.69;4907576;29;20299;-62
2023/05/15 00:16:08;;;;;;;8.43;5.67;;;;;;;9.25;100.00;98327.03;4907077;29;20231;-62
2023/05/15 00:18:35;;;;;;;7.30;5.40;;;;;;;9.22;100.00;98325.56;4906085;29;20231;-62
2023/05/15 00:21:02;;;;;;;8.63;5.53;;;;;;;9.26;100.00;98321.69;4908249;29;20281;-62
2023/05/15 00:23:28;;;;;;;6.83;5.50;;;;;;;9.24;100.00;98323.63;4893558;29;20227;-62
2023/05/15 00:25:55;;;;;;;10.07;5.57;;;;;;;9.25;100.00;98324.41;4908481;29;20241;-62
2023/05/15 00:28:21;;;;;;;8.53;5.43;;;;;;;9.23;100.00;98321.16;4905456;29;20671;-62
2023/05/15 00:30:50;;;;;;;7.30;5.50;;;;;;;9.19;100.00;98325.84;4907973;29;20229;-62
2023/05/15 00:33:17;;;;;;;6.77;5.60;;;;;;;9.23;100.00;98321.16;4889732;29;20223;-62
2023/05/15 00:35:44;;;;;;;6.97;5.10;;;;;;;9.24;100.00;98320.19;4908238;29;20282;-62
2023/05/15 00:38:11;;;;;;;6.80;5.13;;;;;;;9.19;100.00;98319.81;4888762;29;20237;-63
2023/05/15 00:40:39;;;;;;;6.67;5.00;;;;;;;9.14;100.00;98315.06;4906047;29;20231;-63
2023/05/15 00:43:06;;;;;;;7.00;5.30;;;;;;;9.16;100.00;98319.13;4881384;29;20239;-63
2023/05/15 00:45:33;;;;;;;5.97;4.80;;;;;;;9.09;100.00;98320.69;4908085;29;20249;-63
2023/05/15 00:48:02;;;;;;;6.67;5.20;;;;;;;9.10;100.00;98313.72;4910593;29;20278;-63
2023/05/15 00:50:30;;;;;;;6.57;5.60;;;;;;;9.08;100.00;98320.88;4908424;29;20432;-63
2023/05/15 00:52:58;;;;;;;6.57;5.53;;;;;;;9.05;100.00;98321.97;4911397;29;20302;-63
2023/05/15 00:55:26;;;;;;;8.07;5.10;;;;;;;9.05;100.00;98326.38;4894244;29;20230;-63
2023/05/15 00:57:53;;;;;;;7.47;5.27;;;;;;;9.04;100.00;98324.72;4911311;29;20230;-63
2023/05/15 01:00:20;;;;;;;7.00;5.27;;;;;;;8.98;100.00;98326.16;4892370;29;20234;-63
2023/05/15 01:02:47;;;;;;;7.97;5.27;;;;;;;8.92;100.00;98329.34;4896381;29;20624;-63
2023/05/15 01:05:15;;;;;;;6.33;5.07;;;;;;;8.91;100.00;98332.91;4908196;29;20234;-63
2023/05/15 01:07:49;;;;;;;8.07;5.53;;;;;;;8.95;100.00;98334.25;4910231;29;20238;-63
2023/05/15 01:10:17;;;;;;;6.30;5.33;;;;;;;8.98;100.00;98337.38;4907535;29;20320;-63
2023/05/15 01:12:46;;;;;;;6.57;5.20;;;;;;;9.01;100.00;98336.25;4910337;29;20341;-64
2023/05/15 01:15:12;;;;;;;7.77;4.83;;;;;;;9.13;100.00;98327.25;4908664;29;20234;-64
2023/05/15 01:17:39;;;;;;;7.27;5.10;;;;;;;9.10;100.00;98332.75;4891099;29;20230;-64
2023/05/15 01:20:10;;;;;;;7.03;5.37;;;;;;;9.04;100.00;98333.34;4894378;29;20231;-64
2023/05/15 01:22:57;;;;;;;11.33;5.50;;;;;;;9.05;100.00;98331.56;4892036;29;20696;-63
2023/05/15 01:25:45;;;;;;;10.57;5.90;;;;;;;9.05;100.00;98334.97;4907905;29;20610;-63
2023/05/15 01:28:19;;;;;;;6.80;5.20;;;;;;;9.13;100.00;98334.25;4887641;29;20239;-63
2023/05/15 01:30:49;;;;;;;7.70;5.60;;;;;;;9.08;100.00;98329.47;4892012;29;20232;-63
2023/05/15 01:33:20;;;;;;;8.63;4.70;;;;;;;9.10;100.00;98326.75;4881702;29;20227;-63
2023/05/15 01:35:52;;;;;;;7.03;5.07;;;;;;;9.04;100.00;98329.94;4899097;29;20767;-64
2023/05/15 01:38:27;;;;;;;6.10;4.87;;;;;;;8.97;100.00;98330.53;4905761;29;20234;-64
2023/05/15 01:41:04;;;;;;;7.20;5.47;;;;;;;8.95;100.00;98329.84;4897529;29;20348;-64
2023/05/15 01:43:36;;;;;;;7.20;5.23;;;;;;;8.94;100.00;98322.22;4906207;29;20229;-63
2023/05/15 01:46:05;;;;;;;9.57;5.50;;;;;;;8.90;100.00;98321.66;4892298;29;20827;-64
2023/05/15 01:48:35;;;;;;;10.03;5.20;;;;;;;8.95;100.00;98321.25;4906983;29;20236;-63
2023/05/15 01:51:04;;;;;;;7.00;5.53;;;;;;;8.92;100.00;98316.34;4911124;29;20280;-63
2023/05/15 01:53:32;;;;;;;6.17;4.90;;;;;;;8.86;100.00;98320.34;4889309;29;20236;-64
2023/05/15 01:55:59;;;;;;;6.23;5.13;;;;;;;8.87;100.00;98316.75;4892847;29;20250;-64
2023/05/15 01:58:28;;;;;;;9.57;5.80;;;;;;;8.82;100.00;98324.19;4890004;29;20306;-63
2023/05/15 02:00:56;;;;;;;8.73;5.17;;;;;;;8.89;100.00;98321.84;4910101;29;20246;-63
2023/05/15 02:03:24;;;;;;;8.30;5.43;;;;;;;8.81;100.00;98319.94;4890145;29;20646;-63
2023/05/15 02:05:52;;;;;;;7.50;5.07;;;;;;;8.73;100.00;98323.28;4910249;29;20221;-63
2023/05/15 02:08:20;;;;;;;6.90;5.23;;;;;;;8.64;100.00;98321.56;4907317;29;20229;-63
2023/05/15 02:10:48;;;;;;;6.93;5.33;;;;;;;8.62;100.00;98316.50;4892764;29;20902;-63
2023/05/15 02:13:16;;;;;;;9.07;5.57;;;;;;;8.63;100.00;98322.53;4906972;29;20226;-63
2023/05/15 02:15:43;;;;;;;8.70;5.23;;;;;;;8.57;100.00;98324.75;4908283;29;20230;-63
2023/05/15 02:18:11;;;;;;;7.23;5.10;;;;;;;8.55;100.00;98324.06;4907397;29;20296;-63
2023/05/15 02:20:39;;;;;;;5.57;4.90;;;;;;;8.54;100.00;98326.81;4908418;29;20806;-64
2023/05/15 02:23:05;;;;;;;6.27;4.93;;;;;;;8.56;100.00;98319.69;4910421;29;20253;-63
2023/05/15 02:25:41;;;;;;;6.40;5.17;;;;;;;8.57;100.00;98321.31;4890422;29;20226;-63
2023/05/15 02:28:12;;;;;;;8.67;5.27;;;;;;;8.60;100.00;98325.44;4910305;29;20227;-63
2023/05/15 02:30:46;;;;;;;7.33;5.37;;;;;;;8.55;100.00;98320.66;4907741;29;20234;-63
2023/05/15 02:33:25;;;;;;;7.53;5.37;;;;;;;8.51;100.00;98325.34;4906956;29;20237;-63
2023/05/15 02:35:58;;;;;;;7.90;5.37;;;;;;;8.51;100.00;98316.69;4895123;29;20273;-63
2023/05/15 02:38:30;;;;;;;6.93;5.10;;;;;;;8.52;100.00;98326.97;4905904;29;20231;-63
2023/05/15 02:40:57;;;;;;;7.83;5.67;;;;;;;8.46;100.00;98324.91;4909792;29;20857;-63
2023/05/15 02:43:26;;;;;;;8.10;5.57;;;;;;;8.48;100.00;98328.19;4905962;29;20306;-63
2023/05/15 02:45:52;;;;;;;8.10;5.40;;;;;;;8.46;100.00;98324.13;4909940;29;20236;-63
2023/05/15 02:48:21;;;;;;;9.43;5.43;;;;;;;8.51;100.00;98327.09;4906997;29;20310;-63
2023/05/15 02:50:48;;;;;;;7.63;5.00;;;;;;;8.47;100.00;98323.16;4910291;29;20227;-63
2023/05/15 02:53:15;;;;;;;11.80;5.10;;;;;;;8.44;100.00;98321.63;4883322;29;20229;-63
2023/05/15 02:55:41;;;;;;;7.33;5.73;;;;;;;8.42;100.00;98332.19;4909153;29;20282;-63
2023/05/15 02:58:08;;;;;;;7.67;5.30;;;;;;;8.42;100.00;98333.97;4909991;29;20242;-63
2023/05/15 03:03:47;;;;;;;9.10;5.40;;;;;;;8.35;100.00;98325.09;5590957;23;20237;-63
2023/05/15 03:06:14;;;;;;;9.43;5.27;;;;;;;8.27;100.00;98329.25;4904095;29;20240;-63
2023/05/15 03:08:40;;;;;;;7.87;5.10;;;;;;;8.29;100.00;98321.31;4927396;28;20700;-63
2023/05/15 03:11:07;;;;;;;7.63;5.27;;;;;;;8.25;100.00;98335.56;4927853;29;20236;-62
2023/05/15 03:13:33;;;;;;;7.00;5.03;;;;;;;8.29;100.00;98321.31;4905807;29;20252;-63
2023/05/15 03:16:00;;;;;;;6.90;4.87;;;;;;;8.27;100.00;98329.25;4919361;29;20229;-63
2023/05/15 03:18:27;;;;;;;8.37;5.70;;;;;;;8.31;100.00;98327.19;4900335;29;20229;-63
2023/05/15 03:20:54;;;;;;;8.23;5.43;;;;;;;8.32;100.00;98328.81;4899972;29;20234;-63
2023/05/15 03:23:21;;;;;;;6.20;4.83;;;;;;;8.34;100.00;98332.09;4899018;29;20246;-63
2023/05/15 03:25:47;;;;;;;9.33;5.40;;;;;;;8.34;100.00;98334.69;4900480;29;20242;-63
2023/05/15 03:28:14;;;;;;;5.17;4.67;;;;;;;8.40;100.00;98334.13;4898640;28;20234;-63
2023/05/15 03:33:14;;;;;;;7.50;5.03;;;;;;;8.47;100.00;98336.97;4900552;29;20665;-63
2023/05/15 03:35:41;;;;;;;8.00;5.20;;;;;;;8.53;100.00;98328.59;4908745;29;20597;-63
2023/05/15 03:38:09;;;;;;;7.00;5.33;;;;;;;8.67;100.00;98337.69;4906382;29;20650;-63
2023/05/15 03:40:38;;;;;;;6.77;5.40;;;;;;;8.81;100.00;98339.00;4906286;29;20242;-63
2023/05/15 03:43:04;;;;;;;6.00;4.97;;;;;;;8.87;100.00;98337.59;4884749;29;20227;-63
2023/05/15 03:45:33;;;;;;;9.80;5.17;;;;;;;8.97;100.00;98330.53;4905915;29;20346;-63
2023/05/15 03:47:59;;;;;;;8.03;5.13;;;;;;;9.00;100.00;98332.84;4891898;29;20317;-63
2023/05/15 03:50:26;;;;;;;6.23;4.90;;;;;;;8.97;100.00;98324.53;4882378;29;20296;-63
2023/05/15 03:52:53;;;;;;;7.83;5.80;;;;;;;9.01;100.00;98331.88;4908880;29;20332;-63
2023/05/15 03:55:21;;;;;;;8.43;5.30;;;;;;;9.03;100.00;98329.09;4879890;29;20247;-63
2023/05/15 03:57:48;;;;;;;5.67;5.07;;;;;;;9.08;100.00;98333.88;4892059;29;20235;-63
2023/05/15 04:00:15;;;;;;;7.93;5.43;;;;;;;9.05;100.00;98329.78;4882828;29;20233;-63
2023/05/15 04:02:42;;;;;;;7.67;5.27;;;;;;;9.05;100.00;98336.78;4908910;29;20744;-63
2023/05/15 04:05:09;;;;;;;8.83;5.57;;;;;;;9.06;100.00;98333.22;4908560;29;20235;-63
2023/05/15 04:07:36;;;;;;;6.87;5.33;;;;;;;9.12;100.00;98328.22;4906515;29;20237;-63
2023/05/15 04:10:04;;;;;;;6.80;5.37;;;;;;;9.15;100.00;98337.53;4908760;29;20238;-63
2023/05/15 04:12:33;;;;;;;7.77;5.40;;;;;;;9.11;100.00;98329.19;4906024;29;20725;-63
2023/05/15 04:15:13;;;;;;;7.17;5.07;;;;;;;9.18;100.00;98339.00;4908519;29;20882;-63
2023/05/15 04:17:40;;;;;;;6.43;5.00;;;;;;;9.19;100.00;98336.28;4906053;29;20645;-63
2023/05/15 04:20:09;;;;;;;6.63;4.83;;;;;;;9.21;100.00;98333.50;4912291;29;20228;-63
2023/05/15 04:22:36;;;;;;;5.70;4.83;;;;;;;9.25;100.00;98330.47;4900493;29;20716;-63
2023/05/15 04:25:04;;;;;;;6.93;5.03;;;;;;;9.30;100.00;98337.81;4911333;29;20245;-63
2023/05/15 04:27:32;;;;;;;6.07;4.87;;;;;;;9.31;100.00;98336.84;4909214;29;20232;-63
2023/05/15 04:29:59;;;;;;;7.30;5.53;;;;;;;9.32;100.00;98337.69;4912629;29;20235;-63
2023/05/15 04:32:26;;;;;;;6.73;5.37;;;;;;;9.36;100.00;98334.63;4909386;29;20241;-63
2023/05/15 04:34:53;;;;;;;6.70;4.97;;;;;;;9.41;100.00;98334.97;4910220;29;20731;-63
2023/05/15 04:37:19;;;;;;;10.27;6.13;;;;;;;9.41;100.00;98329.78;4909468;29;20283;-63
2023/05/15 04:39:46;;;;;;;20.80;9.83;;;;;;;9.43;100.00;98334.84;4912074;29;20244;-63
2023/05/15 04:42:12;;;;;;;10.87;6.40;;;;;;;9.44;100.00;98331.28;4909496;29;20279;-63
2023/05/15 04:44:40;;;;;;;10.27;7.67;;;;;;;9.45;100.00;98322.50;4911880;29;20718;-63
2023/05/15 04:47:07;;;;;;;11.07;8.10;;;;;;;9.47;100.00;98338.78;4911924;29;20254;-63
2023/05/15 04:49:33;;;;;;;12.97;9.33;;;;;;;9.53;100.00;98335.59;4909353;29;20619;-63
2023/05/15 04:52:00;;;;;;;13.63;8.47;;;;;;;9.60;100.00;98335.78;4912016;29;20275;-63
2023/05/15 04:54:26;;;;;;;12.90;8.27;;;;;;;9.73;100.00;98330.16;4884957;29;20240;-63
2023/05/15 04:56:53;;;;;;;10.87;8.00;;;;;;;9.81;100.00;98335.44;4911707;29;20327;-63
2023/05/15 04:59:27;;;;;;;14.27;7.70;;;;;;;9.85;100.00;98331.53;4908352;28;20260;-63
2023/05/15 05:01:55;;;;;;;8.70;6.60;;;;;;;9.98;100.00;98330.31;4911712;29;20577;-63
2023/05/15 05:04:26;;;;;;;8.17;6.67;;;;;;;10.10;100.00;98334.31;4907791;28;20290;-63
2023/05/15 05:06:52;;;;;;;8.00;5.87;;;;;;;10.22;100.00;98331.44;4911883;29;20311;-63
2023/05/15 05:09:44;;;;;;;7.43;5.63;;;;;;;10.38;100.00;98335.88;4908138;28;20241;-63
2023/05/15 05:12:11;;;;;;;6.53;5.27;;;;;;;10.53;100.00;98338.78;4908959;29;20242;-63
2023/05/15 05:14:40;;;;;;;9.53;5.77;;;;;;;10.62;100.00;98338.63;4885356;29;20234;-63
2023/05/15 05:17:08;;;;;;;7.53;5.63;;;;;;;10.76;100.00;98341.59;4910953;29;20289;-63
2023/05/15 05:19:35;;;;;;;9.90;6.50;;;;;;;10.91;100.00;98347.03;4909117;28;20227;-63
2023/05/15 05:22:03;;;;;;;7.90;5.97;;;;;;;11.05;100.00;98341.19;4911536;29;20250;-63
2023/05/15 05:24:30;;;;;;;7.10;5.77;;;;;;;11.20;100.00;98337.94;4908369;28;20239;-63
2023/05/15 05:26:57;;;;;;;8.70;5.10;;;;;;;11.34;100.00;98341.69;4911377;29;20237;-63
2023/05/15 05:29:26;;;;;;;6.47;5.40;;;;;;;11.50;100.00;98335.66;4908078;28;20617;-63
2023/05/15 05:31:53;;;;;;;6.90;4.90;;;;;;;11.55;100.00;98341.22;4910888;29;20229;-63
2023/05/15 05:34:27;;;;;;;7.20;4.60;;;;;;;11.63;100.00;98343.00;4907005;28;20250;-63
2023/05/15 05:37:19;;;;;;;5.60;4.67;;;;;;;11.69;100.00;98333.66;4911382;29;20228;-63
2023/05/15 05:39:45;;;;;;;5.97;4.60;;;;;;;11.70;100.00;98341.34;4908141;28;20602;-63
2023/05/15 05:42:12;;;;;;;5.47;4.50;;;;;;;11.67;100.00;98342.50;4908199;28;20279;-64
2023/05/15 05:44:39;;;;;;;5.67;4.77;;;;;;;11.69;100.00;98344.13;4910873;28;20559;-64
2023/05/15 05:47:05;;;;;;;5.10;4.30;;;;;;;11.66;100.00;98338.25;4911115;29;20638;-64
2023/05/15 05:49:33;;;;;;;5.50;5.00;;;;;;;11.65;100.00;98341.88;4908168;28;20227;-64
2023/05/15 05:52:05;;;;;;;5.43;4.80;;;;;;;11.66;100.00;98351.31;4911197;29;20258;-64
2023/05/15 05:54:32;;;;;;;5.90;4.90;;;;;;;11.65;100.00;98346.25;4906851;28;20276;-64
2023/05/15 05:56:59;;;;;;;6.47;5.37;;;;;;;11.61;100.00;98345.78;4909829;29;20239;-64
2023/05/15 05:59:28;;;;;;;5.97;4.87;;;;;;;11.61;100.00;98348.41;4907588;28;20239;-64
2023/05/15 06:01:54;;;;;;;8.73;5.20;;;;;;;11.61;100.00;98348.41;4910263;29;20242;-64
2023/05/15 06:04:26;;;;;;;8.30;5.53;;;;;;;11.62;100.00;98352.66;4907110;28;20248;-64
2023/05/15 06:06:54;;;;;;;8.50;5.70;;;;;;;11.62;100.00;98352.66;4910457;29;20243;-64
2023/05/15 06:09:26;;;;;;;7.97;5.20;;;;;;;11.62;100.00;98357.88;4907816;28;20264;-64
2023/05/15 06:11:53;;;;;;;10.60;6.23;;;;;;;11.70;100.00;98357.03;4910611;29;20261;-64
2023/05/15 06:14:45;;;;;;;7.17;5.43;;;;;;;11.90;100.00;98357.50;4907780;28;20647;-64
2023/05/15 06:17:11;;;;;;;8.13;6.23;;;;;;;11.79;100.00;98370.91;4906727;29;20227;-64
2023/05/15 06:19:38;;;;;;;8.07;5.90;;;;;;;12.00;100.00;98367.00;4910451;28;20820;-64
2023/05/15 06:22:06;;;;;;;7.77;6.10;;;;;;;12.13;100.00;98371.75;4924594;29;20310;-64
2023/05/15 06:24:32;;;;;;;11.17;6.20;;;;;;;12.28;100.00;98379.69;4906913;28;20298;-64
2023/05/15 06:26:59;;;;;;;7.67;5.63;;;;;;;12.45;100.00;98378.66;4910330;29;20730;-64
2023/05/15 06:29:27;;;;;;;9.13;5.87;;;;;;;12.60;100.00;98377.97;4907214;28;20227;-64
2023/05/15 06:31:53;;;;;;;7.17;5.50;;;;;;;12.71;100.00;98377.59;4909905;29;20248;-64
2023/05/15 06:34:26;;;;;;;10.03;6.87;;;;;;;12.96;100.00;98382.69;4906705;28;20231;-64
2023/05/15 06:36:53;;;;;;;8.07;5.83;;;;;;;13.02;100.00;98382.00;4910243;29;20225;-64
2023/05/15 06:39:25;;;;;;;8.63;5.83;;;;;;;13.15;98.64;98386.69;4907467;28;20794;-64
2023/05/15 06:41:56;;;;;;;8.23;5.83;;;;;;;13.27;97.07;98385.28;4909442;29;20292;-64
2023/05/15 06:44:27;;;;;;;6.17;4.60;;;;;;;13.41;95.28;98388.13;4906964;28;20231;-64
2023/05/15 06:46:53;;;;;;;5.97;4.53;;;;;;;13.46;94.97;98382.41;4910250;29;20303;-64
2023/05/15 06:49:27;;;;;;;5.57;4.93;;;;;;;13.62;94.67;98379.66;4906971;28;20735;-64
2023/05/15 06:51:53;;;;;;;4.90;4.10;;;;;;;14.00;94.30;98379.63;4909929;29;20252;-64
2023/05/15 06:54:27;;;;;;;6.10;4.23;;;;;;;14.27;93.66;98381.84;4906391;28;20321;-64
2023/05/15 06:56:54;;;;;;;7.50;4.87;;;;;;;14.54;92.35;98379.56;4909446;29;20254;-64
2023/05/15 06:59:26;;;;;;;4.20;3.80;;;;;;;14.65;91.39;98383.56;4906869;28;20300;-64
2023/05/15 07:01:54;;;;;;;6.47;4.43;;;;;;;14.74;90.89;98378.03;4909685;29;20292;-64
2023/05/15 07:04:26;;;;;;;4.77;4.10;;;;;;;14.75;88.31;98384.13;4906395;28;20239;-64
2023/05/15 07:06:53;;;;;;;7.87;4.27;;;;;;;15.00;88.43;98389.03;4908955;29;20716;-64
2023/05/15 07:09:47;;;;;;;6.23;3.93;;;;;;;15.32;84.00;98384.31;4907065;28;20769;-64
2023/05/15 07:12:13;;;;;;;4.70;3.70;;;;;;;15.56;77.55;98390.19;4906279;29;20245;-64
2023/05/15 07:14:40;;;;;;;3.40;3.10;;;;;;;15.72;79.37;98397.00;4909487;28;20315;-64
2023/05/15 07:17:07;;;;;;;5.60;3.50;;;;;;;15.64;79.46;98395.34;4909434;29;20235;-64
2023/05/15 07:19:33;;;;;;;7.27;3.90;;;;;;;15.68;79.74;98391.31;4906054;28;20245;-64
2023/05/15 07:22:00;;;;;;;5.67;3.60;;;;;;;15.81;77.45;98393.22;4909257;29;20236;-64
2023/05/15 07:24:27;;;;;;;3.30;2.97;;;;;;;15.69;79.16;98389.47;4906043;28;20724;-64
2023/05/15 07:26:55;;;;;;;6.93;4.17;;;;;;;15.78;76.53;98396.25;4908255;29;20302;-64
2023/05/15 07:29:26;;;;;;;3.87;3.47;;;;;;;16.13;75.68;98390.25;4906647;28;20292;-64
2023/05/15 07:31:53;;;;;;;5.00;3.67;;;;;;;16.18;75.66;98387.84;4896962;29;20705;-64
2023/05/15 07:34:44;;;;;;;5.73;3.73;;;;;;;16.36;76.39;98380.25;4905386;28;20242;-64
2023/05/15 07:37:11;;;;;;;5.20;4.00;;;;;;;16.40;75.65;98388.59;4906467;29;20907;-64
2023/05/15 07:39:37;;;;;;;4.83;3.87;;;;;;;16.75;73.49;98399.09;4909079;28;20769;-64
2023/05/15 07:42:06;;;;;;;6.97;3.80;;;;;;;16.64;72.73;98392.56;4909155;29;20631;-64
2023/05/15 07:44:32;;;;;;;4.57;3.97;;;;;;;16.34;74.08;98390.19;4906523;28;20241;-64
2023/05/15 07:46:59;;;;;;;9.37;4.27;;;;;;;16.32;75.60;98388.75;4908725;29;20241;-64
2023/05/15 07:49:26;;;;;;;5.70;4.37;;;;;;;16.40;73.32;98385.13;4906505;28;20226;-64
2023/05/15 07:51:53;;;;;;;5.27;4.03;;;;;;;16.26;74.53;98379.00;4908971;29;20650;-64
2023/05/15 07:54:44;;;;;;;7.27;4.27;;;;;;;16.17;72.46;98375.69;4906182;28;20234;-64
2023/05/15 07:57:13;;;;;;;5.30;3.83;;;;;;;16.07;74.84;98376.03;4904735;29;20236;-64
2023/05/15 07:59:39;;;;;;;4.20;3.50;;;;;;;16.43;74.61;98366.31;4909112;28;20334;-64
2023/05/15 08:02:06;;;;;;;5.60;3.67;;;;;;;16.49;74.39;98366.31;4908846;29;20240;-64
2023/05/15 08:04:33;;;;;;;5.27;3.30;;;;;;;16.66;70.66;98369.47;4905932;28;20238;-64
2023/05/15 08:06:59;;;;;;;4.60;3.67;;;;;;;16.50;71.54;98361.88;4908997;29;20241;-64
2023/05/15 08:09:26;;;;;;;5.73;3.90;;;;;;;16.18;72.44;98369.41;4905950;28;20674;-64
2023/05/15 08:11:55;;;;;;;4.73;3.47;;;;;;;15.95;75.42;98359.94;4908781;29;20238;-64
2023/05/15 08:14:28;;;;;;;5.70;4.00;;;;;;;16.40;73.64;98367.53;4905671;28;20808;-64
2023/05/15 08:16:54;;;;;;;4.10;3.70;;;;;;;16.40;74.47;98353.53;4908366;29;20238;-64
2023/05/15 08:19:26;;;;;;;7.00;4.07;;;;;;;16.43;73.32;98358.41;4906060;28;20241;-64
2023/05/15 08:21:53;;;;;;;5.33;4.00;;;;;;;16.58;76.07;98348.56;4908232;29;20256;-64
2023/05/15 08:24:45;;;;;;;4.77;3.50;;;;;;;16.37;74.11;98360.00;4905380;28;20334;-65
2023/05/15 08:27:11;;;;;;;4.30;3.60;;;;;;;16.21;74.69;98358.50;4906121;29;20261;-64
2023/05/15 08:29:39;;;;;;;4.87;3.67;;;;;;;16.10;75.57;98365.13;4908860;28;20243;-64
2023/05/15 08:32:06;;;;;;;4.13;3.73;;;;;;;16.03;75.78;98367.69;4908332;29;20240;-64
2023/05/15 08:34:33;;;;;;;5.10;3.90;;;;;;;15.91;76.20;98359.53;4904130;28;20293;-64
2023/05/15 08:37:00;;;;;;;4.83;3.87;;;;;;;15.93;77.46;98360.16;4908463;29;20294;-64
2023/05/15 08:39:26;;;;;;;5.57;4.67;;;;;;;15.83;76.59;98364.91;4905625;28;20259;-64
2023/05/15 08:41:57;;;;;;;5.40;4.30;;;;;;;15.86;75.40;98374.25;4907816;29;20240;-64
2023/05/15 08:44:27;;;;;;;5.27;3.93;;;;;;;15.55;78.46;98375.41;4905158;28;20233;-64
2023/05/15 08:46:56;;;;;;;6.77;5.00;;;;;;;15.87;74.75;98373.28;4908738;29;20241;-64
2023/05/15 08:49:35;;;;;;;5.63;4.60;;;;;;;15.93;75.53;98369.84;4905548;28;20229;-64
2023/05/15 08:52:03;;;;;;;5.53;4.87;;;;;;;16.17;74.15;98373.06;4908039;29;20795;-64
2023/05/15 08:54:30;;;;;;;7.10;5.60;;;;;;;16.35;72.38;98368.09;4905384;28;21678;-64
2023/05/15 08:56:57;;;;;;;5.50;4.90;;;;;;;16.25;72.20;98369.47;4908405;29;20714;-64
2023/05/15 08:59:26;;;;;;;5.97;4.53;;;;;;;16.46;72.11;98377.25;4904558;29;20268;-64
2023/05/15 09:01:55;;;;;;;7.20;5.67;;;;;;;16.67;70.26;98368.44;4908312;29;20289;-64
2023/05/15 09:04:26;;;;;;;6.03;5.40;;;;;;;16.47;72.16;98368.34;4905250;28;20241;-64
2023/05/15 09:06:54;;;;;;;7.03;6.10;;;;;;;16.78;73.02;98371.53;4910390;29;20234;-64
2023/05/15 09:09:28;;;;;;;6.67;5.30;;;;;;;17.15;69.97;98366.78;4908511;28;20249;-64
2023/05/15 09:11:55;;;;;;;7.80;5.93;;;;;;;16.99;72.07;98372.41;4911380;29;20748;-64
2023/05/15 09:14:26;;;;;;;10.00;5.63;;;;;;;16.77;72.47;98368.06;4908540;29;20240;-64
2023/05/15 09:16:54;;;;;;;7.63;6.00;;;;;;;16.30;75.86;98364.44;4925851;29;20241;-64
2023/05/15 09:19:27;;;;;;;6.90;6.03;;;;;;;16.47;75.91;98363.06;4908022;28;20233;-64
2023/05/15 09:21:56;;;;;;;7.27;5.90;;;;;;;16.53;75.75;98356.22;4911218;29;20234;-61
2023/05/15 09:24:28;;;;;;;8.17;6.10;;;;;;;16.36;74.52;98353.91;4900214;28;20234;-64
2023/05/15 09:27:02;;;;;;;11.07;6.20;;;;;;;16.27;74.77;98352.44;4910838;29;20230;-64
2023/05/15 09:29:30;;;;;;;7.20;5.33;;;;;;;16.40;75.20;98350.91;4905821;28;20251;-64
2023/05/15 09:32:02;;;;;;;8.47;6.60;;;;;;;16.57;72.96;98351.38;4910265;29;20316;-64
2023/05/15 09:34:30;;;;;;;9.33;6.27;;;;;;;16.62;75.71;98349.78;4907368;28;20236;-64
2023/05/15 09:36:57;;;;;;;9.77;5.27;;;;;;;16.79;71.73;98344.16;4910972;29;20243;-64
2023/05/15 09:39:26;;;;;;;6.63;5.50;;;;;;;16.87;71.36;98343.16;4878229;28;20240;-64
2023/05/15 09:41:53;;;;;;;8.00;4.80;;;;;;;16.93;68.81;98343.19;4909587;29;20286;-63
2023/05/15 09:44:45;;;;;;;6.83;4.60;;;;;;;16.87;69.91;98336.09;4907094;28;20281;-64
2023/05/15 09:47:15;;;;;;;6.77;4.90;;;;;;;16.94;67.53;98333.44;4882007;29;20244;-64
2023/05/15 09:49:45;;;;;;;9.37;6.00;;;;;;;16.87;69.88;98330.81;4910760;28;20243;-64
2023/05/15 09:52:12;;;;;;;8.77;4.90;;;;;;;17.08;69.12;98331.66;4907696;29;20250;-63
2023/05/15 09:54:40;;;;;;;5.87;4.83;;;;;;;16.85;72.02;98324.09;4910247;28;20254;-63
2023/05/15 09:57:08;;;;;;;7.63;5.57;;;;;;;16.96;70.64;98319.06;4910383;29;20244;-63
2023/05/15 09:59:35;;;;;;;8.00;5.33;;;;;;;17.15;69.45;98319.31;4906793;28;20238;-63
2023/05/15 10:02:01;;;;;;;6.90;4.87;;;;;;;17.20;69.47;98316.88;4909825;29;20294;-63
2023/05/15 10:04:34;;;;;;;7.77;4.70;;;;;;;17.33;68.97;98317.91;4907537;28;20263;-63
2023/05/15 10:07:01;;;;;;;7.47;4.77;;;;;;;17.31;67.25;98314.66;4910356;29;20262;-62
2023/05/15 10:09:30;;;;;;;4.60;4.17;;;;;;;17.52;64.56;98321.56;4890383;28;20715;-62
2023/05/15 10:11:57;;;;;;;5.67;3.60;;;;;;;17.54;62.38;98304.53;4909251;29;20248;-65
2023/05/15 10:14:28;;;;;;;4.83;4.20;;;;;;;17.57;63.46;98303.28;4905774;28;20231;-62
2023/05/15 10:16:55;;;;;;;6.47;5.00;;;;;;;17.47;65.99;98302.91;4899652;29;20231;-63
2023/05/15 10:19:30;;;;;;;8.13;4.83;;;;;;;17.73;62.14;98299.44;4898787;28;20563;-63
2023/05/15 10:21:59;;;;;;;5.90;4.20;;;;;;;17.71;63.72;98294.34;4902436;29;20287;-63
2023/05/15 10:24:30;;;;;;;5.33;4.07;;;;;;;17.92;63.69;98296.97;4901360;28;20229;-63
2023/05/15 10:26:58;;;;;;;6.70;4.47;;;;;;;18.18;62.29;98287.34;4903474;29;20279;-63
2023/05/15 10:29:29;;;;;;;5.67;3.90;;;;;;;18.24;59.15;98290.00;4915237;28;20291;-63
2023/05/15 10:31:56;;;;;;;4.80;4.30;;;;;;;18.26;58.94;98281.84;4903662;28;20341;-63
2023/05/15 10:34:27;;;;;;;4.90;4.00;;;;;;;18.14;57.57;98282.47;4899231;28;20220;-63
2023/05/15 10:36:56;;;;;;;3.90;3.50;;;;;;;18.40;58.34;98282.63;4883918;29;20699;-63
2023/05/15 10:39:28;;;;;;;6.03;4.90;;;;;;;18.19;61.99;98281.88;4900620;28;20692;-64
2023/05/15 10:41:57;;;;;;;6.17;4.73;;;;;;;18.57;59.58;98277.66;4903009;29;20262;-64
2023/05/15 10:44:26;;;;;;;5.00;4.50;;;;;;;18.66;59.43;98275.56;4904185;28;20633;-63
2023/05/15 10:46:53;;;;;;;5.63;4.60;;;;;;;18.96;61.30;98273.19;4902591;29;20780;-64
2023/05/15 10:49:45;;;;;;;6.07;4.87;;;;;;;18.87;62.71;98262.00;4900012;29;20312;-64
2023/05/15 10:52:13;;;;;;;7.10;5.57;;;;;;;18.99;61.75;98259.53;4900191;29;20612;-64
2023/05/15 10:54:39;;;;;;;7.10;5.83;;;;;;;18.86;60.59;98254.28;4902815;28;20253;-63
2023/05/15 10:57:06;;;;;;;9.07;6.83;;;;;;;18.61;59.85;98255.06;4903055;29;20256;-65
2023/05/15 10:59:35;;;;;;;6.00;5.20;;;;;;;18.66;60.23;98247.28;4895429;28;20564;-65
2023/05/15 11:02:22;;;;;;;6.57;5.60;;;;;;;19.11;60.22;98256.16;4902380;29;20751;-64
2023/05/15 11:04:54;;;;;;;6.67;5.63;;;;;;;19.66;57.61;98257.31;4900185;29;20259;-65
2023/05/15 11:07:24;;;;;;;7.83;6.13;;;;;;;19.88;55.63;98255.88;4897744;29;20320;-62
2023/05/15 11:09:54;;;;;;;6.33;5.30;;;;;;;20.45;54.65;98256.66;4901880;28;20736;-65
2023/05/15 11:12:22;;;;;;;10.93;5.40;;;;;;;20.99;54.21;98258.56;4900027;29;20228;-65
2023/05/15 11:15:23;;;;;;;7.23;6.17;;;;;;;20.84;54.13;98259.00;4904468;28;20267;-64
2023/05/15 11:18:03;;;;;;;7.30;5.37;;;;;;;21.50;54.16;98254.47;4876124;29;20249;-65
2023/05/15 11:20:33;;;;;;;7.50;6.00;;;;;;;21.70;52.51;98263.97;4863237;28;20383;-65
2023/05/15 11:23:01;;;;;;;7.40;5.60;;;;;;;22.42;50.41;98249.44;4900301;29;20267;-65
2023/05/15 11:25:31;;;;;;;7.80;5.83;;;;;;;22.22;50.25;98259.69;4904429;28;20310;-65
2023/05/15 11:27:58;;;;;;;8.17;6.40;;;;;;;22.34;47.09;98271.09;4906286;29;20223;-65
2023/05/15 11:30:35;;;;;;;7.00;6.00;;;;;;;21.49;48.19;98284.72;4903266;28;20295;-65
2023/05/15 11:33:04;;;;;;;2.63;2.20;;;;;;;18.18;50.74;98297.91;4899272;29;20233;-65
2023/05/15 11:35:33;;;;;;;2.60;2.40;;;;;;;16.67;53.61;98310.47;4897899;28;20249;-66
2023/05/15 11:38:03;;;;;;;2.37;1.70;;;;;;;16.57;54.34;98304.75;4909073;29;20240;-66
2023/05/15 11:40:32;;;;;;;3.10;2.43;;;;;;;16.25;58.17;98314.16;4905957;28;20722;-66
2023/05/15 11:43:06;;;;;;;2.00;1.80;;;;;;;15.75;59.17;98318.50;4907842;29;20234;-66
2023/05/15 11:45:37;;;;;;;4.23;2.23;;;;;;;15.00;66.34;98316.25;4906068;28;20229;-65
2023/05/15 11:48:06;;;;;;;9.63;3.07;;;;;;;14.70;73.03;98321.59;4909105;29;20296;-65